Time;durP1;ratioP1;P1;durP2;ratioP2;P2;SDS_P1;SDS_P2;PMS_P1;PMS_P2;Temp;Humidity;BMP_temperature;BMP_pressure;BME280_temperature;BME280_humidity;BME280_pressure;Samples;Min_cycle;Max_cycle;Signal;HPM_P1;HPM_P2
2024/02/07 00:00:48;;;;;;;3.72;1.10;;;;;;;6.20;75.67;99200.44;4985967;28;20203;-59
2024/02/07 00:03:15;;;;;;;3.25;0.80;;;;;;;6.19;74.67;99206.44;4987176;28;20078;-55
2024/02/07 00:05:41;;;;;;;3.20;1.05;;;;;;;6.17;75.08;99211.59;4987068;28;20061;-54
2024/02/07 00:08:08;;;;;;;3.97;1.42;;;;;;;6.17;75.57;99209.88;4985902;28;20050;-52
2024/02/07 00:10:35;;;;;;;1.85;0.88;;;;;;;6.16;75.79;99203.03;4987601;28;20577;-53
2024/02/07 00:13:03;;;;;;;3.90;1.00;;;;;;;6.15;74.12;99185.88;4986989;28;20683;-54
2024/02/07 00:15:29;;;;;;;3.30;0.95;;;;;;;6.15;75.08;99198.72;4987279;28;20046;-59
2024/02/07 00:17:58;;;;;;;3.78;0.90;;;;;;;6.15;75.69;99216.72;4985691;28;20138;-52
2024/02/07 00:20:24;;;;;;;3.92;1.00;;;;;;;6.13;75.64;99213.31;4985682;28;20053;-53
2024/02/07 00:22:51;;;;;;;4.55;0.77;;;;;;;6.13;75.64;99213.31;4987125;28;20054;-56
2024/02/07 00:25:18;;;;;;;1.60;0.80;;;;;;;6.12;74.40;99206.44;4986624;28;20140;-50
2024/02/07 00:27:44;;;;;;;6.03;1.10;;;;;;;6.12;74.65;99203.84;4985882;28;20054;-50
2024/02/07 00:30:11;;;;;;;5.65;0.98;;;;;;;6.11;75.75;99194.44;4985547;28;20058;-57
2024/02/07 00:32:53;;;;;;;6.15;1.13;;;;;;;6.12;75.14;99200.44;4986040;28;20054;-55
2024/02/07 00:35:21;;;;;;;5.20;1.63;;;;;;;6.13;74.87;99207.28;4983443;28;20137;-55
2024/02/07 00:37:48;;;;;;;3.65;1.05;;;;;;;6.10;75.01;99213.28;4980630;28;20471;-56
2024/02/07 00:40:15;;;;;;;5.65;1.10;;;;;;;6.10;74.47;99208.16;4977792;28;20116;-54
2024/02/07 00:42:41;;;;;;;7.68;1.10;;;;;;;6.10;75.18;99208.16;4975442;28;20042;-56
2024/02/07 00:45:08;;;;;;;6.75;1.23;;;;;;;6.09;74.81;99206.44;4977234;28;20073;-58
2024/02/07 00:47:35;;;;;;;3.63;0.90;;;;;;;6.10;75.79;99203.00;4979771;28;20161;-52
2024/02/07 00:50:02;;;;;;;3.47;1.10;;;;;;;6.08;74.33;99203.88;4976633;28;20058;-58
2024/02/07 00:52:28;;;;;;;5.45;0.90;;;;;;;6.09;74.28;99209.03;4979072;28;20047;-55
2024/02/07 00:54:55;;;;;;;1.58;0.68;;;;;;;6.08;75.58;99197.00;4981117;28;20054;-52
2024/02/07 00:57:22;;;;;;;3.42;0.98;;;;;;;6.09;75.57;99179.88;4976253;28;20047;-59
2024/02/07 00:59:48;;;;;;;3.55;1.35;;;;;;;6.08;74.60;99175.59;4979351;28;20050;-52
2024/02/07 01:02:15;;;;;;;4.03;0.70;;;;;;;6.05;75.16;99184.16;4975339;28;20050;-52
2024/02/07 01:04:42;;;;;;;2.25;0.90;;;;;;;6.03;75.94;99188.41;4977155;28;20050;-56
2024/02/07 01:07:09;;;;;;;5.85;1.52;;;;;;;6.01;74.88;99197.84;4980040;28;20133;-57
2024/02/07 01:09:37;;;;;;;5.18;1.48;;;;;;;5.99;74.99;99194.38;4984331;28;20105;-55
2024/02/07 01:12:04;;;;;;;4.50;1.90;;;;;;;5.96;75.88;99182.38;4984347;28;20069;-56
2024/02/07 01:14:31;;;;;;;6.32;1.75;;;;;;;5.94;76.01;99175.53;4982242;28;20054;-54
2024/02/07 01:16:57;;;;;;;4.72;1.75;;;;;;;5.90;74.79;99188.38;4981034;28;20061;-53
2024/02/07 01:19:25;;;;;;;7.30;2.20;;;;;;;5.88;74.58;99187.50;4980832;28;20416;-58
2024/02/07 01:21:52;;;;;;;3.13;1.63;;;;;;;5.86;75.76;99189.22;4981470;28;20081;-50
2024/02/07 01:24:19;;;;;;;4.35;1.80;;;;;;;5.84;75.20;99185.78;4985787;28;20542;-53
2024/02/07 01:26:47;;;;;;;7.55;2.03;;;;;;;5.84;74.42;99185.78;4983655;28;20952;-54
2024/02/07 01:29:13;;;;;;;8.10;2.50;;;;;;;5.82;75.67;99187.50;4979444;28;20104;-53
2024/02/07 01:31:41;;;;;;;6.13;2.35;;;;;;;5.80;76.08;99194.34;4981095;28;20065;-56
2024/02/07 01:34:09;;;;;;;9.10;2.60;;;;;;;5.77;76.07;99191.75;4979263;28;20145;-54
2024/02/07 01:36:45;;;;;;;7.55;2.47;;;;;;;5.76;74.52;99193.47;4981943;28;20570;-56
2024/02/07 01:39:13;;;;;;;7.00;2.35;;;;;;;5.74;76.20;99207.19;4982423;28;20057;-53
2024/02/07 01:44:29;;;;;;;8.27;2.45;;;;;;;5.69;74.94;99201.16;4981363;28;20078;-49
2024/02/07 01:47:13;;;;;;;8.73;2.90;;;;;;;5.68;74.90;99199.44;4984852;28;20050;-59
2024/02/07 01:49:45;;;;;;;11.38;2.65;;;;;;;5.61;75.09;99194.25;4992397;28;20054;-58
2024/02/07 01:52:14;;;;;;;6.15;2.70;;;;;;;5.56;75.27;99184.81;4983672;28;20074;-51
2024/02/07 01:54:41;;;;;;;9.05;2.88;;;;;;;5.51;75.46;99193.38;4983847;28;20137;-50
2024/02/07 01:57:08;;;;;;;9.98;2.33;;;;;;;5.45;75.90;99188.22;4985151;28;20182;-53
2024/02/07 01:59:36;;;;;;;6.50;2.38;;;;;;;5.41;75.48;99196.78;4982311;28;21055;-55
2024/02/07 02:02:05;;;;;;;6.20;1.88;;;;;;;5.37;75.78;99206.16;4981777;28;20050;-56
2024/02/07 02:04:33;;;;;;;11.88;2.45;;;;;;;5.34;75.19;99205.28;4985319;28;20097;-60
2024/02/07 02:07:00;;;;;;;8.43;2.58;;;;;;;5.32;75.94;99197.59;4985129;28;20512;-57
2024/02/07 02:09:29;;;;;;;6.30;2.97;;;;;;;5.31;75.38;99198.44;4985319;28;20054;-52
2024/02/07 02:11:57;;;;;;;5.13;2.20;;;;;;;5.29;75.99;99192.44;4983039;28;20050;-60
2024/02/07 02:14:24;;;;;;;5.10;2.45;;;;;;;5.27;76.06;99196.72;4983230;28;20059;-55
2024/02/07 02:16:52;;;;;;;6.57;2.78;;;;;;;5.27;75.20;99214.69;4985065;28;20061;-57
2024/02/07 02:19:19;;;;;;;6.00;2.15;;;;;;;5.26;76.38;99212.94;4983544;28;20077;-55
2024/02/07 02:24:55;;;;;;;11.20;3.20;;;;;;;5.19;76.23;99206.91;5027604;27;20445;-55
2024/02/07 02:30:33;;;;;;;11.32;2.35;;;;;;;5.14;75.55;99218.88;5035273;27;20399;-55
2024/02/07 02:33:08;;;;;;;8.25;2.42;;;;;;;5.10;76.03;99207.72;4998334;28;20046;-57
2024/02/07 02:35:38;;;;;;;11.57;1.92;;;;;;;5.09;75.86;99213.72;4998797;28;20046;-55
2024/02/07 02:38:07;;;;;;;5.32;1.88;;;;;;;5.06;76.27;99216.25;4999665;28;20053;-55
2024/02/07 02:40:33;;;;;;;5.35;1.58;;;;;;;5.04;76.01;99219.66;5000368;28;20575;-55
2024/02/07 02:43:00;;;;;;;5.05;1.42;;;;;;;5.01;75.37;99217.94;4998007;28;20073;-55
2024/02/07 02:45:27;;;;;;;10.40;1.85;;;;;;;4.99;76.27;99219.63;5000714;28;20056;-58
2024/02/07 02:47:54;;;;;;;8.23;1.70;;;;;;;4.98;75.35;99217.91;4999207;28;20050;-53
2024/02/07 02:50:25;;;;;;;4.07;1.50;;;;;;;4.97;76.20;99213.63;4996415;28;20053;-52
2024/02/07 02:52:54;;;;;;;7.72;1.63;;;;;;;4.95;75.77;99193.09;4999251;28;20054;-55
2024/02/07 02:55:21;;;;;;;5.97;1.50;;;;;;;4.95;75.76;99194.78;5034475;28;20049;-50
2024/02/07 02:57:50;;;;;;;5.45;1.83;;;;;;;4.94;75.29;99193.09;5017620;28;20054;-59
2024/02/07 03:00:20;;;;;;;9.85;2.50;;;;;;;4.93;76.11;99183.69;5007737;28;20340;-57
2024/02/07 03:02:48;;;;;;;;;;;;;;;4.83;76.14;99186.16;4998349;28;20574;-52
2024/02/07 03:08:15;;;;;;;5.25;1.33;;;;;;;4.86;76.09;99191.31;4994607;28;20058;-55
2024/02/07 03:10:44;;;;;;;3.25;1.17;;;;;;;4.86;75.23;99193.88;4982871;28;20059;-56
2024/02/07 03:13:12;;;;;;;5.35;2.13;;;;;;;4.85;75.35;99194.75;4983118;28;20056;-55
2024/02/07 03:15:39;;;;;;;8.02;1.35;;;;;;;4.84;76.17;99190.47;4980973;28;20125;-56
2024/02/07 03:18:06;;;;;;;6.97;1.58;;;;;;;4.83;76.07;99193.03;4985770;28;20404;-59
2024/02/07 03:20:33;;;;;;;4.93;1.20;;;;;;;4.81;75.49;99195.56;4984360;28;20507;-52
2024/02/07 03:23:00;;;;;;;6.50;1.30;;;;;;;4.79;76.14;99196.41;4981514;28;21841;-57
2024/02/07 03:25:27;;;;;;;4.95;1.17;;;;;;;4.79;76.13;99191.28;4984416;28;20116;-58
2024/02/07 03:27:54;;;;;;;4.32;2.00;;;;;;;4.77;75.82;99193.84;4981245;28;20591;-55
2024/02/07 03:30:21;;;;;;;4.53;1.02;;;;;;;4.75;76.08;99192.94;4981115;28;20145;-55
2024/02/07 03:32:49;;;;;;;4.40;1.48;;;;;;;4.74;75.99;99193.81;4982685;28;20141;-56
2024/02/07 03:35:16;;;;;;;7.53;1.15;;;;;;;4.73;75.58;99192.94;4984247;28;20058;-58
2024/02/07 03:37:43;;;;;;;4.82;1.00;;;;;;;4.73;75.11;99212.63;4984157;28;20504;-53
2024/02/07 03:40:13;;;;;;;10.55;1.60;;;;;;;4.72;75.67;99204.06;4975817;28;20500;-55
2024/02/07 03:42:42;;;;;;;7.82;1.13;;;;;;;4.72;75.62;99200.63;4970064;28;20046;-61
2024/02/07 03:45:14;;;;;;;4.32;1.38;;;;;;;4.70;75.44;99192.06;4982042;28;20078;-53
2024/02/07 03:47:41;;;;;;;3.85;1.10;;;;;;;4.70;75.99;99202.31;4971034;28;20057;-56
2024/02/07 03:50:12;;;;;;;7.05;0.70;;;;;;;4.70;75.56;99197.19;4969650;28;20639;-53
2024/02/07 03:52:42;;;;;;;5.35;1.25;;;;;;;4.70;75.18;99212.59;4964145;28;20060;-55
2024/02/07 03:55:10;;;;;;;3.70;1.00;;;;;;;4.69;75.66;99213.44;4993792;28;20129;-53
2024/02/07 03:57:37;;;;;;;7.50;0.80;;;;;;;4.67;75.11;99215.13;4965356;28;20456;-51
2024/02/07 04:00:08;;;;;;;2.50;0.77;;;;;;;4.65;75.16;99214.25;4968681;28;20062;-55
2024/02/07 04:02:38;;;;;;;4.72;1.17;;;;;;;4.63;75.58;99212.53;4963918;28;20462;-53
2024/02/07 04:05:07;;;;;;;2.65;0.65;;;;;;;4.62;75.02;99212.50;4967149;28;20508;-55
2024/02/07 04:07:35;;;;;;;6.95;1.17;;;;;;;4.61;75.19;99218.50;4968504;28;20059;-56
2024/02/07 04:10:04;;;;;;;4.18;0.77;;;;;;;4.60;75.00;99222.75;4965825;28;20058;-58
2024/02/07 05:16:25;;;;;;;2.53;1.05;;;;;;;4.35;75.17;99216.56;5045753;28;20044;-60
2024/02/07 05:18:52;;;;;;;3.42;0.70;;;;;;;4.35;74.67;99225.13;5058332;28;20053;-55
2024/02/07 05:21:18;;;;;;;4.43;2.33;;;;;;;4.35;75.23;99237.94;5055590;28;20457;-58
2024/02/07 05:23:45;;;;;;;5.72;0.93;;;;;;;4.36;75.75;99246.50;5056083;28;20045;-52
2024/02/07 05:26:12;;;;;;;5.88;1.02;;;;;;;4.35;75.53;99240.50;5045843;28;20052;-53
2024/02/07 05:28:42;;;;;;;3.42;1.02;;;;;;;4.35;75.42;99232.81;5045137;28;20048;-57
2024/02/07 05:31:10;;;;;;;3.17;1.35;;;;;;;4.35;75.42;99225.13;5046514;28;20063;-54
2024/02/07 05:33:39;;;;;;;6.57;1.33;;;;;;;4.34;75.53;99215.72;5044890;28;20406;-55
2024/02/07 05:36:08;;;;;;;5.30;0.93;;;;;;;4.33;74.89;99218.25;5041840;28;20063;-57
2024/02/07 05:38:35;;;;;;;1.70;0.88;;;;;;;4.32;75.49;99226.81;5043493;28;20075;-53
2024/02/07 05:41:01;;;;;;;5.03;0.82;;;;;;;4.30;74.73;99224.22;5043132;28;20047;-53
2024/02/07 05:43:29;;;;;;;3.95;1.35;;;;;;;4.29;74.99;99222.50;5046812;28;20080;-55
2024/02/07 05:45:57;;;;;;;3.63;0.85;;;;;;;4.28;75.61;99223.34;5045374;28;20048;-61
2024/02/07 05:48:24;;;;;;;3.95;1.05;;;;;;;4.29;75.24;99222.50;5044982;28;20048;-54
2024/02/07 05:50:51;;;;;;;3.95;2.28;;;;;;;4.29;74.82;99229.34;5043799;28;20722;-58
2024/02/07 05:53:19;;;;;;;5.53;1.48;;;;;;;4.28;75.75;99223.34;5047804;28;20543;-55
2024/02/07 05:55:45;;;;;;;4.13;0.68;;;;;;;4.26;75.05;99221.63;5042100;28;20045;-49
2024/02/07 05:58:12;;;;;;;3.85;1.80;;;;;;;4.24;74.88;99234.41;5044177;28;20390;-54
2024/02/07 06:00:42;;;;;;;2.30;0.90;;;;;;;4.24;75.49;99239.53;5046063;28;20053;-53
2024/02/07 06:03:09;;;;;;;3.05;1.05;;;;;;;4.23;75.20;99233.53;5047253;28;20136;-59
2024/02/07 06:05:35;;;;;;;7.70;0.95;;;;;;;4.24;75.64;99237.84;5039054;28;20041;-56
2024/02/07 06:08:03;;;;;;;6.05;0.75;;;;;;;4.24;74.97;99227.59;5042472;28;20053;-60
2024/02/07 06:10:31;;;;;;;5.32;1.05;;;;;;;4.24;75.57;99230.16;5024519;28;20510;-51
2024/02/07 06:12:58;;;;;;;3.55;2.00;;;;;;;4.24;75.57;99234.41;5044312;28;20472;-53
2024/02/07 06:15:24;;;;;;;5.88;1.02;;;;;;;4.23;75.08;99230.13;5044334;28;20049;-58
2024/02/07 06:17:51;;;;;;;3.65;1.80;;;;;;;4.20;75.67;99240.34;5043800;28;20425;-60
2024/02/07 06:20:18;;;;;;;4.70;1.35;;;;;;;4.19;75.73;99236.91;5045331;28;20098;-56
2024/02/07 06:22:47;;;;;;;6.55;0.88;;;;;;;4.19;75.39;99246.34;5045151;28;20055;-57
2024/02/07 06:25:18;;;;;;;6.57;1.13;;;;;;;4.16;75.12;99244.59;5042360;28;20494;-54
2024/02/07 06:27:45;;;;;;;5.82;1.75;;;;;;;4.12;75.44;99230.00;5042912;28;20135;-54
2024/02/07 06:30:13;;;;;;;5.10;1.05;;;;;;;4.10;75.14;99227.44;5035403;28;20060;-54
2024/02/07 06:32:40;;;;;;;3.45;0.82;;;;;;;4.07;75.15;99226.53;5045892;28;20067;-52
2024/02/07 06:35:08;;;;;;;2.75;1.08;;;;;;;4.06;75.42;99230.81;5045111;28;20576;-55
2024/02/07 06:37:35;;;;;;;4.28;0.85;;;;;;;4.04;75.31;99234.19;5046406;28;20059;-52
2024/02/07 06:40:02;;;;;;;2.53;0.70;;;;;;;4.01;75.21;99242.72;5046679;28;20057;-54
2024/02/07 06:42:29;;;;;;;1.63;0.63;;;;;;;3.99;75.34;99249.53;5046224;28;20044;-59
2024/02/07 06:44:55;;;;;;;1.75;1.05;;;;;;;3.98;75.30;99258.06;5043952;28;20056;-57
2024/02/07 06:47:22;;;;;;;3.45;1.55;;;;;;;3.96;75.40;99259.75;5043207;28;20053;-55
2024/02/07 06:49:49;;;;;;;7.85;1.30;;;;;;;3.95;75.37;99258.03;5046811;28;20076;-51
2024/02/07 06:52:15;;;;;;;4.50;1.42;;;;;;;3.92;75.21;99248.59;5047446;28;20061;-55
2024/02/07 06:54:42;;;;;;;3.33;1.40;;;;;;;3.89;75.41;99242.59;5041917;28;20055;-57
2024/02/07 06:57:09;;;;;;;2.45;1.10;;;;;;;3.83;75.20;99251.06;5044226;28;20056;-56
2024/02/07 06:59:35;;;;;;;1.92;1.33;;;;;;;3.78;75.24;99256.13;5046361;28;20049;-55
2024/02/07 07:02:03;;;;;;;3.17;1.15;;;;;;;3.73;75.67;99258.66;5041775;28;20048;-57
2024/02/07 07:04:30;;;;;;;9.60;1.75;;;;;;;3.70;75.14;99257.72;5045766;28;20055;-50
2024/02/07 07:06:57;;;;;;;4.35;1.20;;;;;;;3.65;75.14;99247.41;5038116;28;20041;-51
2024/02/07 07:09:24;;;;;;;5.93;1.35;;;;;;;3.60;75.26;99244.81;5044122;28;20048;-51
2024/02/07 07:11:50;;;;;;;3.47;0.80;;;;;;;3.57;75.24;99241.34;5045224;28;20045;-54
2024/02/07 07:14:18;;;;;;;3.00;1.73;;;;;;;3.52;75.23;99246.41;5045098;28;20624;-57
2024/02/07 07:16:45;;;;;;;4.93;1.15;;;;;;;3.49;75.63;99233.56;5042367;28;20053;-50
2024/02/07 07:19:12;;;;;;;3.45;0.63;;;;;;;3.46;75.48;99229.28;5046376;28;20053;-51
2024/02/07 07:21:39;;;;;;;2.65;1.40;;;;;;;3.44;75.32;99227.50;5042261;28;20053;-54
2024/02/07 07:24:06;;;;;;;4.70;1.08;;;;;;;3.41;75.57;99230.06;5040943;28;20106;-54
2024/02/07 07:26:33;;;;;;;5.57;0.98;;;;;;;3.36;75.68;99231.69;5041165;28;20049;-56
2024/02/07 07:29:00;;;;;;;2.55;1.83;;;;;;;3.33;75.59;99241.06;5042062;28;20468;-61
2024/02/07 07:31:27;;;;;;;4.53;1.30;;;;;;;3.31;75.57;99244.44;5044688;28;20048;-60
2024/02/07 07:33:55;;;;;;;5.80;0.98;;;;;;;3.28;75.38;99237.56;5043228;28;20655;-58
2024/02/07 07:36:26;;;;;;;8.13;1.02;;;;;;;3.25;75.54;99255.44;5043833;28;20049;-57
2024/02/07 07:38:54;;;;;;;7.63;2.03;;;;;;;3.23;75.92;99262.22;5019624;28;20056;-53
2024/02/07 07:41:23;;;;;;;3.42;1.20;;;;;;;3.20;75.69;99268.16;5042065;28;20044;-50
2024/02/07 07:43:51;;;;;;;4.93;1.83;;;;;;;3.19;75.27;99260.47;5043907;28;20555;-57
2024/02/07 07:46:18;;;;;;;3.40;0.98;;;;;;;3.16;75.42;99251.03;5040127;28;20503;-60
2024/02/07 07:48:44;;;;;;;4.15;1.33;;;;;;;3.19;75.95;99260.47;5040802;28;20044;-53
2024/02/07 07:51:13;;;;;;;3.42;1.02;;;;;;;3.17;75.80;99249.34;5043455;28;20063;-59
2024/02/07 07:53:39;;;;;;;8.52;1.67;;;;;;;3.17;76.20;99246.78;5037487;28;20574;-53
2024/02/07 07:56:06;;;;;;;7.63;1.85;;;;;;;3.19;75.90;99252.78;5039909;28;20058;-54
2024/02/07 07:58:37;;;;;;;4.45;1.20;;;;;;;3.20;75.98;99257.94;5043597;28;20049;-57
2024/02/07 08:01:21;;;;;;;3.15;0.90;;;;;;;3.20;75.88;99265.59;5049171;28;20045;-56
2024/02/07 08:03:49;;;;;;;4.45;1.17;;;;;;;3.23;76.19;99267.34;5047246;28;20049;-58
2024/02/07 08:06:18;;;;;;;6.15;1.38;;;;;;;3.27;75.29;99268.28;5022322;28;20056;-56
2024/02/07 08:08:44;;;;;;;4.40;1.33;;;;;;;3.28;75.56;99275.94;5020474;28;20071;-53
2024/02/07 08:11:11;;;;;;;3.85;0.93;;;;;;;3.32;75.86;99267.47;5042069;28;20493;-55
2024/02/07 08:13:38;;;;;;;4.13;0.82;;;;;;;3.36;76.41;99278.63;5043007;28;20056;-56
2024/02/07 08:16:05;;;;;;;2.83;0.93;;;;;;;3.40;75.33;99271.84;5043309;28;20068;-53
2024/02/07 08:18:33;;;;;;;3.15;1.08;;;;;;;3.45;75.77;99262.53;5040871;28;20060;-60
2024/02/07 08:21:00;;;;;;;4.47;1.65;;;;;;;3.53;75.79;99266.06;5045666;28;20056;-51
2024/02/07 08:23:27;;;;;;;6.70;1.05;;;;;;;3.59;75.23;99266.13;5043826;28;20052;-58
2024/02/07 08:25:53;;;;;;;8.48;2.00;;;;;;;3.68;75.31;99264.56;5041894;28;20053;-54
2024/02/07 08:28:20;;;;;;;4.57;1.17;;;;;;;3.76;75.44;99275.75;5045012;28;20060;-51
2024/02/07 08:30:47;;;;;;;12.60;1.70;;;;;;;3.84;75.20;99266.44;5039453;28;20049;-52
2024/02/07 08:33:13;;;;;;;3.40;0.98;;;;;;;3.93;75.05;99259.72;5040133;28;20049;-55
2024/02/07 08:35:41;;;;;;;4.80;1.83;;;;;;;4.00;74.97;99258.94;5036527;28;20049;-53
2024/02/07 08:38:07;;;;;;;5.85;1.05;;;;;;;4.03;75.29;99266.66;5042052;28;20453;-57
2024/02/07 08:40:34;;;;;;;4.72;0.82;;;;;;;4.05;75.35;99264.97;5044389;28;20045;-57
2024/02/07 08:43:03;;;;;;;5.95;1.52;;;;;;;4.05;75.16;99264.97;5044510;28;20056;-57
2024/02/07 08:45:29;;;;;;;6.65;0.82;;;;;;;4.05;75.29;99264.97;5041780;28;20041;-54
2024/02/07 08:47:57;;;;;;;3.00;0.85;;;;;;;4.06;75.23;99265.84;5042137;28;20052;-57
2024/02/07 08:50:27;;;;;;;4.18;1.25;;;;;;;4.06;74.94;99266.69;5043567;28;20891;-53
2024/02/07 08:52:53;;;;;;;7.38;2.15;;;;;;;4.04;75.11;99268.38;5044021;28;20402;-58
2024/02/07 08:55:20;;;;;;;4.35;1.13;;;;;;;4.04;75.22;99276.06;5043470;28;20037;-54
2024/02/07 08:57:47;;;;;;;7.43;1.25;;;;;;;4.05;75.27;99272.66;5042164;28;20073;-57
2024/02/07 09:00:14;;;;;;;3.13;1.67;;;;;;;4.06;75.06;99281.22;5042011;28;20247;-57
2024/02/07 09:02:41;;;;;;;8.73;1.40;;;;;;;4.08;75.32;99277.81;5048018;28;20060;-56
2024/02/07 09:05:09;;;;;;;5.60;0.90;;;;;;;4.11;75.32;99279.56;5046437;28;20049;-55
2024/02/07 09:07:35;;;;;;;4.38;1.08;;;;;;;4.11;75.48;99279.56;5043959;28;20142;-56
2024/02/07 09:10:03;;;;;;;4.10;1.23;;;;;;;4.11;75.63;99277.88;5042245;28;20057;-56
2024/02/07 09:12:30;;;;;;;3.35;0.98;;;;;;;4.16;75.54;99288.19;5043140;28;20053;-50
2024/02/07 09:14:57;;;;;;;6.35;1.13;;;;;;;4.20;75.22;99294.19;5040617;28;20037;-55
2024/02/07 09:17:23;;;;;;;6.40;1.40;;;;;;;4.25;75.92;99292.53;5043065;28;20065;-58
2024/02/07 09:19:51;;;;;;;7.97;1.13;;;;;;;4.29;75.41;99294.28;5042724;28;20072;-56
2024/02/07 09:22:18;;;;;;;3.05;1.27;;;;;;;4.34;75.53;99281.50;5043060;28;20092;-56
2024/02/07 09:24:44;;;;;;;3.75;1.48;;;;;;;4.37;75.17;99292.66;5031437;28;20136;-56
2024/02/07 09:27:11;;;;;;;4.72;2.08;;;;;;;4.40;75.57;99290.97;5045746;28;20776;-53
2024/02/07 09:29:38;;;;;;;5.22;1.35;;;;;;;4.44;75.79;99292.72;5049036;28;20049;-52
2024/02/07 09:32:05;;;;;;;5.32;1.05;;;;;;;4.47;75.79;99292.75;5044880;28;20049;-53
2024/02/07 09:34:32;;;;;;;2.95;1.38;;;;;;;4.52;75.66;99290.25;5044872;28;20559;-56
2024/02/07 09:37:00;;;;;;;6.32;1.23;;;;;;;4.58;75.46;99280.91;5045136;28;20051;-50
2024/02/07 09:39:28;;;;;;;6.63;2.20;;;;;;;4.65;76.02;99278.38;5045076;28;20498;-54
2024/02/07 09:41:59;;;;;;;3.33;1.50;;;;;;;4.70;75.42;99269.03;5043486;28;20041;-57
2024/02/07 09:44:28;;;;;;;3.92;1.23;;;;;;;4.76;75.93;99263.94;5043443;28;20057;-60
2024/02/07 09:46:58;;;;;;;3.35;1.20;;;;;;;4.81;75.26;99246.88;5046124;28;20040;-55
2024/02/07 09:49:28;;;;;;;3.58;0.65;;;;;;;4.86;75.60;99250.34;5046028;28;20096;-54
2024/02/07 09:51:56;;;;;;;5.38;0.77;;;;;;;4.92;75.31;99256.34;5048030;28;20048;-55
2024/02/07 09:54:23;;;;;;;5.43;1.40;;;;;;;4.99;75.46;99256.44;5045751;28;20058;-55
2024/02/07 09:56:52;;;;;;;2.03;1.02;;;;;;;5.07;75.27;99253.91;5044587;28;20056;-56
2024/02/07 09:59:19;;;;;;;3.60;1.15;;;;;;;5.12;76.09;99248.81;5037539;28;20053;-53
2024/02/07 10:01:47;;;;;;;4.55;0.95;;;;;;;5.18;75.81;99258.25;5045912;28;20056;-56
2024/02/07 10:04:21;;;;;;;4.50;1.08;;;;;;;5.23;75.32;99256.56;5042410;28;20150;-56
2024/02/07 10:06:52;;;;;;;2.60;0.98;;;;;;;5.29;75.99;99254.03;5038685;28;20099;-57
2024/02/07 10:09:19;;;;;;;10.27;1.42;;;;;;;5.33;74.61;99255.78;5045536;28;20056;-50
2024/02/07 10:11:48;;;;;;;3.05;1.08;;;;;;;5.43;75.55;99266.13;5035872;28;20052;-60
2024/02/07 10:14:16;;;;;;;10.43;1.38;;;;;;;5.50;75.84;99263.59;5027331;28;20053;-57
2024/02/07 10:16:44;;;;;;;4.93;1.30;;;;;;;5.54;75.71;99264.44;5023198;28;20059;-52
2024/02/07 10:19:12;;;;;;;4.60;1.25;;;;;;;5.59;74.41;99273.06;5043781;28;20048;-57
2024/02/07 10:21:39;;;;;;;4.43;1.25;;;;;;;5.66;75.04;99267.09;5041604;28;20045;-58
2024/02/07 10:24:06;;;;;;;1.33;0.82;;;;;;;5.71;75.28;99261.13;5043379;28;20079;-51
2024/02/07 10:26:33;;;;;;;7.75;1.33;;;;;;;5.76;75.66;99269.69;5028256;28;20056;-59
2024/02/07 10:29:04;;;;;;;8.15;1.15;;;;;;;5.79;75.66;99269.72;5043985;28;20045;-59
2024/02/07 10:31:31;;;;;;;4.57;0.85;;;;;;;5.85;74.53;99277.47;5028726;28;20942;-55
2024/02/07 10:33:58;;;;;;;2.65;0.82;;;;;;;5.90;74.57;99272.31;5036652;28;20048;-54
2024/02/07 10:36:25;;;;;;;6.05;2.08;;;;;;;5.90;74.28;99278.34;5046037;28;20440;-57
2024/02/07 10:39:00;;;;;;;7.25;1.40;;;;;;;5.94;74.23;99278.34;5017331;28;20058;-55
2024/02/07 10:41:27;;;;;;;3.50;2.47;;;;;;;5.97;74.27;99284.34;5012387;28;20399;-53
2024/02/07 10:44:04;;;;;;;7.40;1.33;;;;;;;5.98;74.80;99287.78;5053842;28;20049;-56
2024/02/07 10:46:31;;;;;;;3.53;0.93;;;;;;;6.02;75.11;99287.78;5027814;28;20063;-55
2024/02/07 10:49:00;;;;;;;5.63;1.27;;;;;;;6.07;74.96;99285.28;5043982;28;20159;-58
2024/02/07 10:51:35;;;;;;;11.25;1.02;;;;;;;6.09;75.14;99287.84;5045131;28;20044;-56
2024/02/07 10:54:07;;;;;;;3.45;0.98;;;;;;;6.12;75.14;99293.84;5044092;28;20041;-49
2024/02/07 10:56:36;;;;;;;4.30;1.30;;;;;;;6.17;74.05;99299.88;5042177;28;20509;-54
2024/02/07 10:59:04;;;;;;;5.65;1.27;;;;;;;6.26;73.79;99300.75;5046693;28;20052;-54
2024/02/07 11:01:32;;;;;;;4.88;1.85;;;;;;;6.29;73.54;99300.78;5044215;28;20425;-55
2024/02/07 11:04:00;;;;;;;6.32;0.95;;;;;;;6.33;73.14;99307.66;5040292;28;20067;-56
2024/02/07 11:06:29;;;;;;;5.63;0.98;;;;;;;6.37;74.75;99306.78;5042707;28;20049;-52
2024/02/07 11:08:58;;;;;;;7.43;1.08;;;;;;;6.42;74.35;99307.66;5042638;28;20117;-59
2024/02/07 11:11:27;;;;;;;6.85;1.15;;;;;;;6.48;74.06;99306.81;5007384;28;20053;-59
2024/02/07 11:13:57;;;;;;;6.85;1.83;;;;;;;6.49;73.72;99294.81;5024127;28;20181;-52
2024/02/07 11:16:25;;;;;;;11.85;1.55;;;;;;;6.51;74.42;99299.09;5043916;28;20055;-58
2024/02/07 11:18:54;;;;;;;9.88;1.38;;;;;;;6.54;74.44;99293.09;5043745;28;20051;-57
2024/02/07 11:21:29;;;;;;;3.67;1.15;;;;;;;6.56;74.00;99283.69;5043366;28;20520;-56
2024/02/07 11:23:59;;;;;;;4.97;1.05;;;;;;;6.59;73.51;99286.25;5038737;28;20067;-53
2024/02/07 11:26:28;;;;;;;5.15;0.80;;;;;;;6.64;73.12;99281.09;5024294;28;20052;-53
2024/02/07 11:28:56;;;;;;;3.45;0.88;;;;;;;6.67;73.43;99279.41;5025422;28;20053;-53
2024/02/07 11:31:24;;;;;;;8.88;0.90;;;;;;;6.73;72.53;99269.97;5022581;28;20087;-56
2024/02/07 11:33:53;;;;;;;9.85;1.10;;;;;;;6.80;72.83;99267.38;5040907;28;20052;-55
2024/02/07 11:36:21;;;;;;;5.80;0.82;;;;;;;6.83;73.45;99261.41;5041078;28;20049;-54
2024/02/07 11:38:54;;;;;;;3.13;1.13;;;;;;;6.89;73.46;99265.69;5043039;28;20056;-57
2024/02/07 11:41:24;;;;;;;4.28;1.55;;;;;;;6.99;72.75;99256.25;5042724;28;20048;-53
2024/02/07 11:43:54;;;;;;;;;;;;;;;7.01;72.74;99251.94;5044334;28;20052;-53
2024/02/07 11:46:23;;;;;;;7.45;1.55;;;;;;;7.23;73.33;99247.59;5043743;28;19932;-55
2024/02/07 11:48:52;;;;;;;7.70;1.67;;;;;;;7.35;72.57;99239.00;5042580;28;20045;-55
2024/02/07 11:51:23;;;;;;;9.68;2.40;;;;;;;7.41;72.09;99244.16;5041952;28;21650;-57
2024/02/07 11:53:58;;;;;;;8.50;1.98;;;;;;;7.45;72.50;99245.84;5023528;28;20067;-51
2024/02/07 11:56:26;;;;;;;6.38;1.55;;;;;;;7.45;72.06;99239.81;5017392;28;20053;-51
2024/02/07 11:58:53;;;;;;;7.38;1.17;;;;;;;7.50;72.09;99240.66;5040224;28;20126;-54
2024/02/07 12:01:23;;;;;;;3.58;2.08;;;;;;;7.55;71.93;99236.38;5043759;28;20470;-60
2024/02/07 12:03:55;;;;;;;7.00;1.10;;;;;;;7.63;72.36;99238.91;5025651;28;20049;-52
2024/02/07 12:06:23;;;;;;;4.00;0.93;;;;;;;7.69;72.14;99232.88;5042211;28;20046;-57
2024/02/07 12:08:52;;;;;;;8.48;1.63;;;;;;;7.79;72.92;99229.41;5035644;28;20820;-54
2024/02/07 12:11:20;;;;;;;2.78;0.73;;;;;;;7.91;72.22;99233.63;5037735;28;20048;-58
2024/02/07 12:13:47;;;;;;;8.32;1.45;;;;;;;7.97;72.04;99223.28;5043222;28;20052;-55
2024/02/07 12:16:14;;;;;;;9.02;0.93;;;;;;;8.04;72.66;99218.09;5040915;28;20049;-56
2024/02/07 12:18:45;;;;;;;11.02;1.23;;;;;;;8.07;71.84;99213.78;5043030;28;20048;-56
2024/02/07 12:21:12;;;;;;;7.93;1.08;;;;;;;8.08;71.89;99219.81;5041339;28;20049;-54
2024/02/07 12:23:40;;;;;;;8.80;2.58;;;;;;;8.08;72.00;99215.47;5041018;28;20518;-53
2024/02/07 12:26:07;;;;;;;4.82;1.23;;;;;;;8.09;71.76;99218.94;5043075;28;20045;-55
2024/02/07 12:28:34;;;;;;;8.60;1.02;;;;;;;8.11;71.52;99214.63;5042492;28;20139;-52
2024/02/07 12:31:01;;;;;;;4.63;0.98;;;;;;;8.15;71.02;99211.16;5043531;28;20080;-61
2024/02/07 12:33:28;;;;;;;7.43;1.17;;;;;;;8.14;71.49;99199.09;5044232;28;20521;-58
2024/02/07 12:35:57;;;;;;;4.50;0.98;;;;;;;8.14;71.01;99198.28;5021537;28;20045;-60
2024/02/07 12:38:25;;;;;;;8.02;1.48;;;;;;;8.14;71.05;99193.94;5028745;28;20156;-60
2024/02/07 12:40:53;;;;;;;10.27;1.63;;;;;;;8.16;70.71;99188.78;5047710;28;20515;-57
2024/02/07 12:43:25;;;;;;;5.63;1.85;;;;;;;8.19;70.46;99193.94;5049198;28;20061;-52
2024/02/07 12:45:55;;;;;;;5.50;2.08;;;;;;;8.26;71.14;99187.00;5048284;28;20129;-57
2024/02/07 12:48:25;;;;;;;5.97;1.58;;;;;;;8.30;71.12;99193.84;5030163;28;20049;-59
2024/02/07 12:50:55;;;;;;;5.75;1.27;;;;;;;8.29;70.65;99184.41;5045085;28;20111;-55
2024/02/07 12:53:22;;;;;;;7.68;1.52;;;;;;;8.24;70.63;99179.25;5047033;28;20045;-56
2024/02/07 12:55:50;;;;;;;9.85;1.95;;;;;;;8.25;70.76;99186.16;5047327;28;20136;-59
2024/02/07 12:58:17;;;;;;;8.30;2.10;;;;;;;8.28;70.50;99178.38;5039240;28;20048;-54
2024/02/07 13:00:44;;;;;;;6.57;0.88;;;;;;;8.33;70.51;99175.78;5045087;28;20494;-52